createdAt,value
2023-04-25T00:01:59.283Z,95553.06
2023-04-25T00:04:46.702Z,95547.81
2023-04-25T00:07:34.165Z,95543.63
2023-04-25T00:10:21.458Z,95551.50
2023-04-25T00:13:08.802Z,95549.91
2023-04-25T00:15:56.146Z,95552.53
2023-04-25T00:18:43.496Z,95551.75
2023-04-25T00:21:30.829Z,95547.56
2023-04-25T00:24:18.160Z,95552.22
2023-04-25T00:27:05.441Z,95548.59
2023-04-25T00:29:52.793Z,95553.53
2023-04-25T00:32:40.145Z,95550.38
2023-04-25T00:35:27.528Z,95545.38
2023-04-25T00:38:14.864Z,95546.69
2023-04-25T00:41:02.225Z,95544.59
2023-04-25T00:43:49.766Z,95547.22
2023-04-25T00:46:37.268Z,95542.47
2023-04-25T00:49:24.609Z,95538.22
2023-04-25T00:52:12.353Z,95538.50
2023-04-25T00:54:59.675Z,95536.91
2023-04-25T00:57:47.046Z,95536.38
2023-04-25T01:00:34.396Z,95533.75
2023-04-25T01:03:21.932Z,95529.56
2023-04-25T01:06:09.400Z,95530.84
2023-04-25T01:08:56.735Z,95531.91
2023-04-25T01:11:44.085Z,95537.38
2023-04-25T01:14:31.425Z,95535.00
2023-04-25T01:17:18.738Z,95542.63
2023-04-25T01:20:06.070Z,95528.94
2023-04-25T01:22:53.390Z,95536.28
2023-04-25T01:25:40.682Z,95534.16
2023-04-25T01:28:27.981Z,95528.63
2023-04-25T01:31:15.328Z,95525.22
2023-04-25T01:34:02.686Z,95528.63
2023-04-25T01:36:50.055Z,95527.56
2023-04-25T01:39:37.343Z,95533.03
2023-04-25T01:42:24.717Z,95535.66
2023-04-25T01:45:12.028Z,95532.25
2023-04-25T01:47:59.426Z,95526.25
2023-04-25T01:50:46.734Z,95529.88
2023-04-25T01:53:34.089Z,95531.72
2023-04-25T01:56:21.378Z,95535.13
2023-04-25T01:59:08.718Z,95527.28
2023-04-25T02:01:56.092Z,95532.75
2023-04-25T02:04:43.616Z,95526.72
2023-04-25T02:07:30.969Z,95523.34
2023-04-25T02:10:18.290Z,95521.75
2023-04-25T02:13:05.584Z,95521.50
2023-04-25T02:15:52.950Z,95520.72
2023-04-25T02:18:40.303Z,95521.75
2023-04-25T02:21:27.680Z,95513.88
2023-04-25T02:24:14.951Z,95510.47
2023-04-25T02:27:02.219Z,95517.56
2023-04-25T02:29:49.546Z,95512.31
2023-04-25T02:32:36.875Z,95506.53
2023-04-25T02:35:24.244Z,95510.72
2023-04-25T02:38:11.562Z,95514.41
2023-04-25T02:40:58.922Z,95507.84
2023-04-25T02:43:46.249Z,95513.31
2023-04-25T02:46:39.440Z,95507.31
2023-04-25T02:49:27.287Z,95503.09
2023-04-25T02:52:14.592Z,95505.16
2023-04-25T02:55:01.980Z,95499.16
2023-04-25T02:57:49.320Z,95493.91
2023-04-25T03:00:36.681Z,95499.41
2023-04-25T03:03:24.172Z,95490.22
2023-04-25T03:06:11.523Z,95487.84
2023-04-25T03:08:58.867Z,95488.34
2023-04-25T03:11:46.188Z,95487.78
2023-04-25T03:14:33.579Z,95471.81
2023-04-25T03:17:20.899Z,95479.91
2023-04-25T03:20:08.255Z,95485.16
2023-04-25T03:22:55.562Z,95479.38
2023-04-25T03:25:42.911Z,95480.94
2023-04-25T03:28:30.252Z,95473.88
2023-04-25T03:31:17.580Z,95477.31
2023-04-25T03:34:04.847Z,95478.88
2023-04-25T03:36:52.193Z,95478.88
2023-04-25T03:39:39.517Z,95471.81
2023-04-25T03:42:26.859Z,95477.84
2023-04-25T03:45:14.186Z,95481.25
2023-04-25T03:48:01.612Z,95484.63
2023-04-25T03:50:48.952Z,95484.09
2023-04-25T03:53:36.318Z,95484.09
2023-04-25T03:56:23.644Z,95471.00
2023-04-25T03:59:10.986Z,95474.44
2023-04-25T04:01:58.320Z,95476.25
2023-04-25T04:04:46.211Z,95479.91
2023-04-25T04:07:33.908Z,95474.16
2023-04-25T04:10:21.264Z,95473.09
2023-04-25T04:13:08.572Z,95471.53
2023-04-25T04:15:55.914Z,95475.94
2023-04-25T04:18:43.246Z,95475.16
2023-04-25T04:21:33.116Z,95475.94
2023-04-25T04:24:20.431Z,95475.94
2023-04-25T04:27:07.776Z,95474.94
2023-04-25T04:29:55.127Z,95467.84
2023-04-25T04:32:42.484Z,95470.22
2023-04-25T04:35:29.844Z,95462.91
2023-04-25T04:38:17.167Z,95469.72
2023-04-25T04:41:04.546Z,95470.50
2023-04-25T04:43:52.173Z,95465.81
2023-04-25T04:46:39.688Z,95468.44
2023-04-25T04:49:27.010Z,95472.38
2023-04-25T04:52:14.318Z,95470.53
2023-04-25T04:55:01.656Z,95464.50
2023-04-25T04:57:48.986Z,95472.38
2023-04-25T05:00:36.439Z,95478.41
2023-04-25T05:03:23.871Z,95476.59
2023-04-25T05:06:11.643Z,95478.41
2023-04-25T05:08:58.939Z,95481.28
2023-04-25T05:11:46.262Z,95479.44
2023-04-25T05:14:33.582Z,95485.72
2023-04-25T05:17:20.905Z,95478.66
2023-04-25T05:20:08.239Z,95481.28
2023-04-25T05:22:55.536Z,95480.47
2023-04-25T05:25:42.874Z,95474.47
2023-04-25T05:28:30.344Z,95476.03
2023-04-25T05:31:17.684Z,95473.97
2023-04-25T05:34:05.029Z,95475.53
2023-04-25T05:36:52.340Z,95472.66
2023-04-25T05:39:39.664Z,95480.00
2023-04-25T05:42:26.986Z,95470.34
2023-04-25T05:45:14.285Z,95475.88
2023-04-25T05:48:01.755Z,95464.34
2023-04-25T05:50:49.170Z,95470.63
2023-04-25T05:53:36.499Z,95466.22
2023-04-25T05:56:23.866Z,95462.06
2023-04-25T05:59:11.176Z,95465.25
2023-04-25T06:01:58.573Z,95467.09
2023-04-25T06:04:46.295Z,95471.06
2023-04-25T06:07:34.181Z,95466.66
2023-04-25T06:10:21.484Z,95467.75
2023-04-25T06:13:08.806Z,95466.72
2023-04-25T06:15:56.168Z,95472.53
2023-04-25T06:18:43.528Z,95467.03
2023-04-25T06:21:30.837Z,95471.25
2023-04-25T06:24:18.189Z,95464.72
2023-04-25T06:27:05.566Z,95474.47
2023-04-25T06:29:52.893Z,95470.06
2023-04-25T06:32:40.285Z,95463.75
2023-04-25T06:35:27.668Z,95476.63
2023-04-25T06:38:15.029Z,95463.25
2023-04-25T06:41:02.409Z,95467.22
2023-04-25T06:43:49.696Z,95470.91
2023-04-25T06:46:37.053Z,95472.75
2023-04-25T06:49:24.406Z,95470.63
2023-04-25T06:52:11.745Z,95465.91
2023-04-25T06:54:59.134Z,95474.81
2023-04-25T06:57:46.509Z,95476.63
2023-04-25T07:00:33.913Z,95465.03
2023-04-25T07:03:21.432Z,95477.41
2023-04-25T07:06:08.973Z,95472.38
2023-04-25T07:08:56.306Z,95474.50
2023-04-25T07:11:43.622Z,95482.38
2023-04-25T07:14:30.893Z,95468.16
2023-04-25T07:17:18.210Z,95475.53
2023-04-25T07:20:05.538Z,95471.28
2023-04-25T07:22:52.877Z,95472.84
2023-04-25T07:25:40.196Z,95472.84
2023-04-25T07:28:27.545Z,95477.06
2023-04-25T07:31:14.854Z,95472.34
2023-04-25T07:34:02.343Z,95468.63
2023-04-25T07:36:49.677Z,95470.75
2023-04-25T07:39:37.026Z,95475.69
2023-04-25T07:42:24.340Z,95466.47
2023-04-25T07:45:11.646Z,95473.84
2023-04-25T07:47:59.018Z,95469.88
2023-04-25T07:50:46.377Z,95467.22
2023-04-25T07:53:33.702Z,95469.59
2023-04-25T07:56:21.043Z,95468.50
2023-04-25T07:59:08.342Z,95466.09
2023-04-25T08:01:55.669Z,95458.13
2023-04-25T08:04:43.103Z,95466.47
2023-04-25T08:07:30.535Z,95464.78
2023-04-25T08:10:17.844Z,95452.06
2023-04-25T08:13:05.566Z,95458.00
2023-04-25T08:15:52.907Z,95463.13
2023-04-25T08:18:40.256Z,95464.59
2023-04-25T08:21:27.606Z,95459.75
2023-04-25T08:24:15.031Z,95464.84
2023-04-25T08:27:02.353Z,95467.84
2023-04-25T08:29:49.679Z,95464.25
2023-04-25T08:32:37.090Z,95467.25
2023-04-25T08:35:24.488Z,95472.41
2023-04-25T08:38:11.828Z,95473.88
2023-04-25T08:40:59.136Z,95473.47
2023-04-25T08:43:46.434Z,95481.44
2023-04-25T08:46:33.794Z,95488.16
2023-04-25T08:49:21.103Z,95492.03
2023-04-25T08:52:08.433Z,95487.47
2023-04-25T08:54:55.744Z,95490.88
2023-04-25T08:57:43.068Z,95512.38
2023-04-25T09:00:30.410Z,95506.16
2023-04-25T09:03:18.027Z,95527.94
2023-04-25T09:06:05.445Z,95520.94
2023-04-25T09:08:52.811Z,95526.84
2023-04-25T09:11:40.092Z,95529.31
2023-04-25T09:14:27.721Z,95529.13
2023-04-25T09:17:15.052Z,95539.47
2023-04-25T09:20:02.383Z,95525.00
2023-04-25T09:22:49.677Z,95537.44
2023-04-25T09:25:37.047Z,95542.06
2023-04-25T09:28:24.383Z,95540.31
2023-04-25T09:31:11.782Z,95542.28
2023-04-25T09:33:59.392Z,95544.72
2023-04-25T09:36:47.493Z,95551.38
2023-04-25T09:39:34.879Z,95542.72
2023-04-25T09:42:22.241Z,95544.16
2023-04-25T09:45:09.592Z,95562.66
2023-04-25T09:47:57.396Z,95571.13
2023-04-25T09:50:44.748Z,95569.34
2023-04-25T09:53:32.089Z,95572.00
2023-04-25T09:56:19.482Z,95567.56
2023-04-25T09:59:06.852Z,95566.78
2023-04-25T10:01:54.260Z,95567.03
2023-04-25T10:04:41.735Z,95557.56
2023-04-25T10:07:29.104Z,95566.25
2023-04-25T10:10:16.427Z,95556.22
2023-04-25T10:13:03.724Z,95553.53
2023-04-25T10:15:51.300Z,95571.69
2023-04-25T10:18:38.634Z,95561.94
2023-04-25T10:21:25.994Z,95588.31
2023-04-25T10:24:13.308Z,95576.13
2023-04-25T10:27:00.650Z,95582.75
2023-04-25T10:29:47.961Z,95569.59
2023-04-25T10:32:35.286Z,95582.78
2023-04-25T10:35:22.584Z,95573.81
2023-04-25T10:38:09.916Z,95582.25
2023-04-25T10:40:57.247Z,95589.06
2023-04-25T10:43:44.611Z,95572.22
2023-04-25T10:46:32.102Z,95582.50
2023-04-25T10:49:19.658Z,95581.41
2023-04-25T10:52:06.988Z,95575.91
2023-04-25T10:54:54.331Z,95578.00
2023-04-25T10:57:41.669Z,95589.59
2023-04-25T11:03:36.426Z,95586.19
2023-04-25T11:06:23.849Z,95582.47
2023-04-25T11:09:11.162Z,95585.06
2023-04-25T11:11:58.503Z,95591.13
2023-04-25T11:14:45.810Z,95586.09
2023-04-25T11:17:33.275Z,95589.78
2023-04-25T11:20:20.660Z,95587.66
2023-04-25T11:23:08.021Z,95580.75
2023-04-25T11:25:55.326Z,95572.03
2023-04-25T11:28:42.705Z,95571.97
2023-04-25T11:31:30.207Z,95575.94
2023-04-25T11:34:17.613Z,95566.16
2023-04-25T11:37:04.906Z,95565.38
2023-04-25T11:39:52.246Z,95569.34
2023-04-25T11:42:39.564Z,95566.47
2023-04-25T11:45:26.915Z,95568.84
2023-04-25T11:48:14.319Z,95577.56
2023-04-25T11:51:02.561Z,95583.09
2023-04-25T11:53:49.873Z,95580.50
2023-04-25T11:56:37.165Z,95577.91
2023-04-25T11:59:24.464Z,95579.53
2023-04-25T12:02:11.806Z,95569.75
2023-04-25T12:05:07.485Z,95571.06
2023-04-25T12:08:03.578Z,95574.19
2023-04-25T12:10:50.918Z,95570.72
2023-04-25T12:13:38.253Z,95570.19
2023-04-25T12:16:25.632Z,95561.72
2023-04-25T12:19:13.000Z,95568.84
2023-04-25T12:22:00.363Z,95571.22
2023-04-25T12:24:47.676Z,95564.66
2023-04-25T12:27:35.041Z,95574.78
2023-04-25T12:30:22.385Z,95579.81
2023-04-25T12:33:09.765Z,95583.47
2023-04-25T12:35:57.152Z,95586.38
2023-04-25T12:38:44.490Z,95584.25
2023-04-25T12:41:31.813Z,95582.63
2023-04-25T12:44:19.158Z,95583.88
2023-04-25T12:47:06.655Z,95597.31
2023-04-25T12:49:54.181Z,95593.56
2023-04-25T12:52:41.704Z,95597.19
2023-04-25T12:55:29.028Z,95609.78
2023-04-25T12:58:16.353Z,95615.78
2023-04-25T13:01:03.740Z,95608.09
2023-04-25T13:03:51.270Z,95615.41
2023-04-25T13:06:38.730Z,95610.09
2023-04-25T13:09:26.053Z,95627.72
2023-04-25T13:12:13.367Z,95618.97
2023-04-25T13:15:00.725Z,95621.81
2023-04-25T13:17:48.118Z,95604.66
2023-04-25T13:20:35.465Z,95624.38
2023-04-25T13:23:22.775Z,95620.28
2023-04-25T13:26:10.143Z,95636.53
2023-04-25T13:28:57.454Z,95638.28
2023-04-25T13:31:44.812Z,95637.38
2023-04-25T13:34:32.135Z,95633.81
2023-04-25T13:37:19.451Z,95636.28
2023-04-25T13:40:06.793Z,95639.28
2023-04-25T13:42:54.136Z,95634.91
2023-04-25T13:45:41.504Z,95644.31
2023-04-25T13:48:28.851Z,95650.53
2023-04-25T13:51:16.151Z,95651.53
2023-04-25T13:54:03.566Z,95656.22
2023-04-25T13:56:50.885Z,95646.44
2023-04-25T13:59:38.229Z,95647.78
2023-04-25T14:02:25.632Z,95646.22
2023-04-25T14:05:13.167Z,95642.94
2023-04-25T14:08:02.197Z,95641.41
2023-04-25T14:10:49.710Z,95645.13
2023-04-25T14:13:37.054Z,95650.94
2023-04-25T14:16:24.526Z,95649.81
2023-04-25T14:19:11.957Z,95643.59
2023-04-25T14:21:59.310Z,95656.94
2023-04-25T14:24:46.670Z,95657.88
2023-04-25T14:27:33.984Z,95655.72
2023-04-25T14:30:21.376Z,95655.94
2023-04-25T14:33:08.844Z,95670.22
2023-04-25T14:35:56.242Z,95686.47
2023-04-25T14:38:43.567Z,95685.81
2023-04-25T14:41:30.934Z,95687.41
2023-04-25T14:44:18.278Z,95692.06
2023-04-25T14:47:05.772Z,95692.72
2023-04-25T14:49:53.109Z,95690.97
2023-04-25T14:52:40.444Z,95694.47
2023-04-25T14:55:27.777Z,95688.69
2023-04-25T14:58:15.110Z,95700.91
2023-04-25T15:01:02.497Z,95699.84
2023-04-25T15:03:50.104Z,95698.53
2023-04-25T15:06:37.838Z,95701.53
2023-04-25T15:09:25.164Z,95701.53
2023-04-25T15:12:12.522Z,95696.75
2023-04-25T15:14:59.853Z,95713.56
2023-04-25T15:17:47.255Z,95697.72
2023-04-25T15:20:34.614Z,95714.63
2023-04-25T15:23:22.734Z,95730.25
2023-04-25T15:26:10.212Z,95723.41
2023-04-25T15:28:57.525Z,95715.69
2023-04-25T15:31:44.939Z,95725.75
2023-04-25T15:34:33.312Z,95732.38
2023-04-25T15:37:21.998Z,95738.28
2023-04-25T15:40:09.305Z,95742.56
2023-04-25T15:42:56.616Z,95738.13
2023-04-25T15:45:44.015Z,95742.72
2023-04-25T15:48:31.361Z,95748.59
2023-04-25T15:51:18.718Z,95745.78
2023-04-25T15:54:06.092Z,95750.84
2023-04-25T15:56:53.402Z,95750.84
2023-04-25T15:59:40.757Z,95739.50
2023-04-25T16:02:28.103Z,95750.16
2023-04-25T16:05:15.657Z,95757.13
2023-04-25T16:08:03.149Z,95759.63
2023-04-25T16:10:50.521Z,95758.16
2023-04-25T16:13:37.873Z,95761.38
2023-04-25T16:16:25.273Z,95766.75
2023-04-25T16:19:12.601Z,95755.72
2023-04-25T16:21:59.923Z,95764.16
2023-04-25T16:24:47.255Z,95769.19
2023-04-25T16:27:34.575Z,95774.75
2023-04-25T16:30:21.893Z,95773.72
2023-04-25T16:33:09.277Z,95767.66
2023-04-25T16:35:56.680Z,95778.47
2023-04-25T16:38:44.038Z,95780.63
2023-04-25T16:41:31.371Z,95778.25
2023-04-25T16:44:19.095Z,95784.59
2023-04-25T16:47:06.532Z,95795.41
2023-04-25T16:49:53.939Z,95798.81
2023-04-25T16:52:42.389Z,95795.94
2023-04-25T16:55:31.121Z,95808.56
2023-04-25T16:58:18.470Z,95802.78
2023-04-25T17:01:05.899Z,95807.81
2023-04-25T17:03:53.472Z,95810.69
2023-04-25T17:06:40.958Z,95816.22
2023-04-25T17:09:29.327Z,95820.44
2023-04-25T17:12:16.766Z,95819.13
2023-04-25T17:15:04.093Z,95825.97
2023-04-25T17:17:51.557Z,95822.03
2023-04-25T17:20:38.950Z,95822.03
2023-04-25T17:23:26.320Z,95828.06
2023-04-25T17:26:13.633Z,95832.53
2023-04-25T17:29:01.003Z,95827.47
2023-04-25T17:31:48.320Z,95829.28
2023-04-25T17:34:35.652Z,95829.03
2023-04-25T17:37:22.982Z,95836.88
2023-04-25T17:40:10.353Z,95847.41
2023-04-25T17:42:57.673Z,95846.84
2023-04-25T17:45:45.036Z,95853.66
2023-04-25T17:48:32.356Z,95863.44
2023-04-25T17:51:19.760Z,95863.38
2023-04-25T17:54:07.084Z,95874.94
2023-04-25T17:56:54.453Z,95868.59
2023-04-25T17:59:41.787Z,95873.03
2023-04-25T18:02:29.384Z,95870.88
2023-04-25T18:05:16.942Z,95877.66
2023-04-25T18:08:04.321Z,95874.97
2023-04-25T18:10:51.590Z,95879.63
2023-04-25T18:13:38.896Z,95889.56
2023-04-25T18:16:26.259Z,95895.56
2023-04-25T18:19:13.660Z,95897.63
2023-04-25T18:22:00.985Z,95905.72
2023-04-25T18:24:49.650Z,95915.19
2023-04-25T18:27:36.994Z,95915.94
2023-04-25T18:30:24.334Z,95922.25
2023-04-25T18:33:11.692Z,95932.56
2023-04-25T18:35:59.783Z,95935.47
2023-04-25T18:38:47.264Z,95938.94
2023-04-25T18:41:54.343Z,95944.28
2023-04-25T18:44:41.850Z,95951.78
2023-04-25T18:47:29.146Z,95969.06
2023-04-25T18:50:16.886Z,95969.91
2023-04-25T18:53:04.205Z,95977.06
2023-04-25T18:55:51.561Z,95976.03
2023-04-25T18:58:38.885Z,95989.75
2023-04-25T19:01:26.332Z,95986.28
2023-04-25T19:04:13.878Z,95986.78
2023-04-25T19:07:01.347Z,95985.97
2023-04-25T19:09:48.663Z,95996.78
2023-04-25T19:12:36.004Z,95992.84
2023-04-25T19:15:23.333Z,95997.38
2023-04-25T19:18:10.666Z,95993.13
2023-04-25T19:20:58.038Z,96000.53
2023-04-25T19:23:45.388Z,96003.16
2023-04-25T19:26:32.690Z,95998.94
2023-04-25T19:29:20.018Z,95999.22
2023-04-25T19:32:07.316Z,96001.88
2023-04-25T19:34:54.935Z,96007.16
2023-04-25T19:37:42.289Z,96005.56
2023-04-25T19:40:29.643Z,96008.25
2023-04-25T19:43:16.915Z,96005.09
2023-04-25T19:46:04.247Z,96010.38
2023-04-25T19:48:51.628Z,96010.38
2023-04-25T19:51:39.000Z,96012.00
2023-04-25T19:54:26.296Z,96024.16
2023-04-25T19:57:13.613Z,96030.78
2023-04-25T20:00:00.912Z,96020.75
2023-04-25T20:02:48.338Z,96023.13
2023-04-25T20:05:35.713Z,96034.75
2023-04-25T20:08:24.739Z,96025.22
2023-04-25T20:11:13.241Z,96039.50
2023-04-25T20:14:00.603Z,96045.88
2023-04-25T20:16:48.000Z,96040.88
2023-04-25T20:19:35.366Z,96045.38
2023-04-25T20:22:22.684Z,96044.88
2023-04-25T20:25:10.001Z,96043.31
2023-04-25T20:27:57.307Z,96047.81
2023-04-25T20:30:44.666Z,96039.38
2023-04-25T20:33:31.986Z,96051.25
2023-04-25T20:36:19.722Z,96044.69
2023-04-25T20:39:07.046Z,96045.19
2023-04-25T20:41:54.392Z,96044.16
2023-04-25T20:44:41.706Z,96033.34
2023-04-25T20:47:29.066Z,96040.97
2023-04-25T20:50:16.440Z,96044.16
2023-04-25T20:53:03.788Z,96039.69
2023-04-25T20:55:51.091Z,96039.94
2023-04-25T20:58:38.469Z,96034.16
2023-04-25T21:01:25.831Z,96032.56
2023-04-25T21:04:13.381Z,96035.47
2023-04-25T21:07:00.788Z,96040.75
2023-04-25T21:09:48.120Z,96046.78
2023-04-25T21:12:35.465Z,96042.31
2023-04-25T21:15:22.850Z,96046.53
2023-04-25T21:18:10.230Z,96052.03
2023-04-25T21:20:57.704Z,96046.25
2023-04-25T21:23:45.009Z,96051.50
2023-04-25T21:26:32.367Z,96058.34
2023-04-25T21:29:19.683Z,96055.44
2023-04-25T21:32:07.026Z,96057.84
2023-04-25T21:34:54.400Z,96058.09
2023-04-25T21:37:41.707Z,96057.56
2023-04-25T21:40:29.042Z,96054.44
2023-04-25T21:43:16.343Z,96056.53
2023-04-25T21:48:54.148Z,96061.53
2023-04-25T21:51:41.722Z,96073.91
2023-04-25T21:54:29.022Z,96071.00
2023-04-25T21:57:16.350Z,96076.81
2023-04-25T22:00:03.641Z,96071.00
2023-04-25T22:02:51.078Z,96071.50
2023-04-25T22:05:38.475Z,96071.00
2023-04-25T22:08:26.066Z,96073.09
2023-04-25T22:11:13.401Z,96069.66
2023-04-25T22:14:00.739Z,96072.06
2023-04-25T22:16:48.035Z,96079.69
2023-04-25T22:19:35.377Z,96082.88
2023-04-25T22:22:22.687Z,96093.94
2023-04-25T22:25:10.053Z,96096.03
2023-04-25T22:27:57.347Z,96086.56
2023-04-25T22:30:44.655Z,96092.84
2023-04-25T22:33:31.948Z,96094.69
2023-04-25T22:36:19.269Z,96092.53
2023-04-25T22:39:06.559Z,96096.41
2023-04-25T22:41:53.895Z,96091.09
2023-04-25T22:44:41.200Z,96095.47
2023-04-25T22:47:28.548Z,96099.56
2023-04-25T22:50:15.885Z,96095.25
2023-04-25T22:53:03.231Z,96094.66
2023-04-25T22:55:50.510Z,96100.03
2023-04-25T22:58:37.927Z,96097.31
2023-04-25T23:01:25.283Z,96089.28
2023-04-25T23:04:12.863Z,96094.38
2023-04-25T23:07:00.313Z,96094.47
2023-04-25T23:09:47.669Z,96098.75
2023-04-25T23:12:34.966Z,96096.19
2023-04-25T23:15:22.272Z,96094.97
2023-04-25T23:18:09.595Z,96087.00
2023-04-25T23:20:56.956Z,96088.19
2023-04-25T23:23:44.286Z,96097.28
2023-04-25T23:26:31.658Z,96097.22
2023-04-25T23:29:18.962Z,96087.69
2023-04-25T23:32:06.256Z,96088.66
2023-04-25T23:34:53.546Z,96086.44
2023-04-25T23:37:40.877Z,96086.63
2023-04-25T23:40:28.189Z,96094.66
2023-04-25T23:43:15.551Z,96104.47
2023-04-25T23:46:02.860Z,96105.69
2023-04-25T23:48:50.601Z,96100.03
2023-04-25T23:51:38.093Z,96109.88
2023-04-25T23:54:25.415Z,96109.50
2023-04-25T23:57:12.762Z,96119.47
